Terminal Aerodrome Forecast
Issued by NWS

Home | Current Version | Previous Version | Graphics & Text | Print | Product List | Glossary On
Versions: 1 2 3 4 5 6 7 8 9 10 11 12
282
FTUS43 KTOP 201738
TAFFOE
TAF
KFOE 201738Z 2018/2118 21012KT P6SM SCT025
     FM202300 05007KT P6SM SCT030
     FM211500 18012KT P6SM SCT025=

USA.gov is the U.S. government's official web portal to all federal, state and local government web resources and services.